Time;durP1;ratioP1;P1;durP2;ratioP2;P2;SDS_P1;SDS_P2;PMS_P1;PMS_P2;Temp;Humidity;BMP_temperature;BMP_pressure;BME280_temperature;BME280_humidity;BME280_pressure;Samples;Min_cycle;Max_cycle;Signal;HPM_P1;HPM_P2
2021/07/24 00:01:37;;;;;;;28.13;24.77;;;;;;;;;;5052932;28;20147;-68
2021/07/24 00:04:03;;;;;;;30.00;24.77;;;;;;;;;;5052807;28;20033;-69
2021/07/24 00:06:30;;;;;;;31.33;26.60;;;;;;;;;;5052905;28;20025;-70
2021/07/24 00:08:58;;;;;;;31.48;28.08;;;;;;;;;;5052860;28;20033;-70
2021/07/24 00:11:25;;;;;;;33.53;27.33;;;;;;;;;;5052838;28;20021;-70
2021/07/24 00:13:51;;;;;;;31.83;26.70;;;;;;;;;;5053146;28;20103;-69
2021/07/24 00:16:17;;;;;;;31.58;26.25;;;;;;;;;;5053084;28;20097;-69
2021/07/24 00:18:43;;;;;;;29.83;26.13;;;;;;;;;;5052754;28;20140;-70
2021/07/24 00:21:09;;;;;;;33.53;25.73;;;;;;;;;;5052762;28;20013;-70
2021/07/24 00:23:36;;;;;;;33.90;25.80;;;;;;;;;;5052939;28;20017;-70
2021/07/24 00:26:03;;;;;;;32.38;25.70;;;;;;;;;;5052625;28;20465;-70
2021/07/24 00:28:29;;;;;;;32.80;25.65;;;;;;;;;;5052385;28;20490;-70
2021/07/24 00:30:56;;;;;;;30.95;26.20;;;;;;;;;;5052685;28;20021;-70
2021/07/24 00:33:22;;;;;;;35.55;26.50;;;;;;;;;;5052684;28;20048;-71
2021/07/24 00:35:48;;;;;;;32.50;26.52;;;;;;;;;;5052623;28;20079;-74
2021/07/24 00:38:14;;;;;;;30.35;26.95;;;;;;;;;;5051243;28;20029;-70
2021/07/24 00:40:43;;;;;;;33.70;27.75;;;;;;;;;;5054376;28;20024;-71
2021/07/24 00:43:10;;;;;;;33.85;28.00;;;;;;;;;;5056417;28;20017;-71
2021/07/24 00:45:43;;;;;;;35.08;27.65;;;;;;;;;;5056077;28;20116;-71
2021/07/24 00:48:11;;;;;;;30.92;27.73;;;;;;;;;;5056465;28;20033;-70
2021/07/24 00:50:37;;;;;;;35.70;28.35;;;;;;;;;;5056333;28;20023;-70
2021/07/24 00:53:11;;;;;;;36.40;29.00;;;;;;;;;;5054967;28;20112;-70
2021/07/24 00:55:37;;;;;;;32.92;28.98;;;;;;;;;;5055010;28;20039;-71
2021/07/24 00:58:22;;;;;;;35.65;28.13;;;;;;;;;;5056187;28;20021;-70
2021/07/24 01:00:48;;;;;;;33.78;28.70;;;;;;;;;;5054859;28;20119;-70
2021/07/24 01:03:14;;;;;;;39.25;30.17;;;;;;;;;;5054824;28;20033;-71
2021/07/24 01:05:41;;;;;;;34.75;29.20;;;;;;;;;;5054698;28;20032;-68
2021/07/24 01:08:08;;;;;;;34.38;29.20;;;;;;;;;;5054678;28;20051;-69
2021/07/24 01:10:34;;;;;;;35.05;28.45;;;;;;;;;;5055921;28;20110;-69
2021/07/24 01:13:02;;;;;;;37.60;29.02;;;;;;;;;;5055964;28;20147;-71
2021/07/24 01:15:28;;;;;;;39.00;30.10;;;;;;;;;;5055832;28;20051;-71
2021/07/24 01:17:54;;;;;;;35.55;29.40;;;;;;;;;;5055833;28;20089;-69
2021/07/24 01:20:20;;;;;;;38.33;30.80;;;;;;;;;;5055774;28;20021;-70
2021/07/24 01:22:47;;;;;;;34.50;30.58;;;;;;;;;;5055746;28;20033;-69
2021/07/24 01:25:13;;;;;;;40.40;30.50;;;;;;;;;;5055726;28;20128;-70
2021/07/24 01:27:43;;;;;;;37.65;29.48;;;;;;;;;;5054010;28;20477;-71
2021/07/24 01:30:10;;;;;;;33.45;29.95;;;;;;;;;;5055591;28;20103;-71
2021/07/24 01:32:36;;;;;;;36.28;29.25;;;;;;;;;;5054256;28;20082;-70
2021/07/24 01:35:03;;;;;;;33.30;29.70;;;;;;;;;;5054171;28;20119;-71
2021/07/24 01:37:29;;;;;;;33.92;29.77;;;;;;;;;;5055412;28;20520;-70
2021/07/24 01:39:55;;;;;;;38.53;30.27;;;;;;;;;;5055366;28;20093;-71
2021/07/24 01:42:22;;;;;;;37.53;31.30;;;;;;;;;;5055109;28;20146;-72
2021/07/24 01:44:48;;;;;;;35.70;30.48;;;;;;;;;;5053889;28;20132;-71
2021/07/24 01:47:14;;;;;;;38.60;29.83;;;;;;;;;;5055268;28;20104;-68
2021/07/24 01:52:47;;;;;;;32.28;28.85;;;;;;;;;;5053759;28;20039;-68
2021/07/24 01:55:14;;;;;;;31.60;27.92;;;;;;;;;;5055244;28;20025;-69
2021/07/24 01:57:42;;;;;;;34.58;28.83;;;;;;;;;;5055353;28;20021;-69
2021/07/24 02:00:09;;;;;;;37.97;28.35;;;;;;;;;;5055296;28;20092;-69
2021/07/24 02:02:36;;;;;;;37.65;29.15;;;;;;;;;;5054989;28;20369;-69
2021/07/24 02:05:04;;;;;;;31.70;28.30;;;;;;;;;;5053566;28;20032;-70
2021/07/24 02:07:33;;;;;;;32.35;28.38;;;;;;;;;;5053621;28;20048;-69
2021/07/24 02:09:59;;;;;;;33.75;29.40;;;;;;;;;;5054865;28;20119;-68
2021/07/24 02:12:26;;;;;;;36.40;30.00;;;;;;;;;;5054799;28;20358;-69
2021/07/24 02:14:52;;;;;;;33.38;29.50;;;;;;;;;;5053412;28;20119;-71
2021/07/24 02:17:18;;;;;;;42.35;30.30;;;;;;;;;;5053394;28;20108;-69
2021/07/24 02:19:44;;;;;;;38.15;29.67;;;;;;;;;;5053331;28;20473;-69
2021/07/24 02:22:11;;;;;;;35.10;29.33;;;;;;;;;;5054579;28;20055;-69
2021/07/24 02:24:37;;;;;;;35.80;28.98;;;;;;;;;;5053197;28;20054;-68
2021/07/24 02:27:07;;;;;;;37.53;27.90;;;;;;;;;;5054567;28;20528;-71
2021/07/24 02:29:34;;;;;;;36.40;27.20;;;;;;;;;;5053259;28;20056;-70
2021/07/24 02:32:00;;;;;;;33.10;26.88;;;;;;;;;;5053019;28;20025;-71
2021/07/24 02:34:26;;;;;;;29.83;24.67;;;;;;;;;;5054402;28;20033;-69
2021/07/24 02:36:52;;;;;;;28.05;24.42;;;;;;;;;;5054374;28;20032;-70
2021/07/24 02:39:18;;;;;;;29.80;24.60;;;;;;;;;;5054274;28;20516;-70
2021/07/24 02:41:45;;;;;;;32.80;24.58;;;;;;;;;;5054193;28;20108;-68
2021/07/24 02:44:11;;;;;;;28.60;22.42;;;;;;;;;;5052897;28;20029;-70
2021/07/24 02:46:37;;;;;;;30.25;23.75;;;;;;;;;;5052771;28;20025;-71
2021/07/24 02:49:03;;;;;;;29.58;24.77;;;;;;;;;;5054171;28;20025;-72
2021/07/24 02:51:30;;;;;;;33.80;24.08;;;;;;;;;;5053710;28;20355;-71
2021/07/24 02:53:56;;;;;;;30.88;25.48;;;;;;;;;;5054086;28;20060;-71
2021/07/24 02:56:22;;;;;;;38.17;26.38;;;;;;;;;;5053937;28;20021;-71
2021/07/24 02:58:48;;;;;;;33.92;24.20;;;;;;;;;;5052588;28;20032;-71
2021/07/24 03:01:15;;;;;;;25.98;22.83;;;;;;;;;;5053877;28;20037;-72
2021/07/24 03:03:41;;;;;;;29.77;25.00;;;;;;;;;;5053473;28;20021;-70
2021/07/24 03:06:07;;;;;;;33.83;25.50;;;;;;;;;;5053790;28;20212;-69
2021/07/24 03:08:34;;;;;;;31.58;25.83;;;;;;;;;;5053735;28;20095;-70
2021/07/24 03:11:00;;;;;;;34.13;25.33;;;;;;;;;;5053954;28;20108;-69
2021/07/24 03:13:26;;;;;;;32.38;25.83;;;;;;;;;;5052445;28;20115;-70
2021/07/24 03:15:52;;;;;;;32.15;26.15;;;;;;;;;;5053855;28;20029;-72
2021/07/24 03:18:19;;;;;;;31.80;25.92;;;;;;;;;;5053552;28;20086;-71
2021/07/24 03:20:45;;;;;;;37.78;27.65;;;;;;;;;;5053520;28;20120;-74
2021/07/24 03:23:11;;;;;;;40.10;27.33;;;;;;;;;;5053156;28;20374;-71
2021/07/24 03:25:40;;;;;;;36.70;26.48;;;;;;;;;;5053340;28;20037;-70
2021/07/24 03:28:07;;;;;;;32.40;25.90;;;;;;;;;;5053219;28;20072;-69
2021/07/24 03:30:33;;;;;;;36.53;27.08;;;;;;;;;;5052005;28;20025;-70
2021/07/24 03:32:59;;;;;;;33.72;27.92;;;;;;;;;;5053271;28;20068;-69
2021/07/24 03:35:25;;;;;;;34.75;28.63;;;;;;;;;;5053538;28;20033;-73
2021/07/24 03:37:51;;;;;;;38.25;28.13;;;;;;;;;;5053192;28;20021;-70
2021/07/24 03:40:20;;;;;;;31.67;28.27;;;;;;;;;;5051948;28;20021;-72
2021/07/24 03:42:46;;;;;;;35.00;25.15;;;;;;;;;;5051851;28;20028;-71
2021/07/24 03:45:12;;;;;;;34.75;25.52;;;;;;;;;;5051802;28;20075;-70
2021/07/24 03:47:39;;;;;;;33.72;26.80;;;;;;;;;;5051787;28;20031;-71
2021/07/24 03:50:05;;;;;;;40.67;27.88;;;;;;;;;;5053060;28;20033;-69
2021/07/24 03:52:31;;;;;;;33.95;25.13;;;;;;;;;;5051743;28;20052;-71
2021/07/24 03:54:58;;;;;;;33.38;26.55;;;;;;;;;;5051666;28;20488;-70
2021/07/24 03:57:24;;;;;;;38.15;27.90;;;;;;;;;;5052963;28;20473;-70
2021/07/24 03:59:50;;;;;;;36.97;24.92;;;;;;;;;;5052631;28;20470;-70
2021/07/24 04:02:23;;;;;;;30.95;23.17;;;;;;;;;;5052942;28;20076;-70
2021/07/24 04:04:52;;;;;;;38.58;24.80;;;;;;;;;;5052610;28;20381;-71
2021/07/24 04:07:19;;;;;;;33.25;24.13;;;;;;;;;;5052922;28;20029;-70
2021/07/24 04:09:45;;;;;;;31.92;22.38;;;;;;;;;;5053111;28;20070;-70
2021/07/24 04:12:12;;;;;;;30.95;22.67;;;;;;;;;;5051459;28;20120;-71
2021/07/24 04:14:38;;;;;;;27.10;21.50;;;;;;;;;;5051621;28;20543;-70
2021/07/24 04:17:04;;;;;;;38.55;23.52;;;;;;;;;;5056695;28;20792;-70
2021/07/24 04:19:31;;;;;;;28.83;24.25;;;;;;;;;;5055277;28;20078;-71
2021/07/24 04:21:57;;;;;;;37.13;22.75;;;;;;;;;;5055522;28;20025;-70
2021/07/24 04:24:23;;;;;;;39.83;25.63;;;;;;;;;;5056560;28;20104;-71
2021/07/24 04:26:50;;;;;;;36.03;25.17;;;;;;;;;;5056763;28;20017;-71
2021/07/24 04:29:16;;;;;;;39.42;25.55;;;;;;;;;;5054855;28;20056;-72
2021/07/24 04:31:43;;;;;;;36.88;25.73;;;;;;;;;;5056452;28;20025;-72
2021/07/24 04:34:09;;;;;;;30.25;25.20;;;;;;;;;;5056636;28;20082;-70
2021/07/24 04:36:35;;;;;;;34.20;25.17;;;;;;;;;;5056900;28;20096;-72
2021/07/24 04:39:01;;;;;;;36.38;28.33;;;;;;;;;;5056558;28;20033;-70
2021/07/24 04:41:27;;;;;;;40.42;26.60;;;;;;;;;;5056797;28;20058;-68
2021/07/24 04:43:53;;;;;;;33.63;24.55;;;;;;;;;;5056390;28;20021;-69
2021/07/24 04:46:20;;;;;;;42.70;27.73;;;;;;;;;;5056716;28;20369;-68
2021/07/24 04:48:46;;;;;;;37.42;27.23;;;;;;;;;;5056082;28;20057;-69
2021/07/24 04:51:15;;;;;;;33.88;27.38;;;;;;;;;;5056344;28;20025;-68
2021/07/24 04:53:41;;;;;;;34.15;25.95;;;;;;;;;;5056348;28;20060;-68
2021/07/24 04:56:07;;;;;;;33.60;24.73;;;;;;;;;;5056482;28;20099;-69
2021/07/24 04:58:34;;;;;;;30.80;24.42;;;;;;;;;;5054967;28;20071;-69
2021/07/24 05:01:01;;;;;;;30.98;25.52;;;;;;;;;;5056135;28;20375;-69
2021/07/24 05:03:27;;;;;;;26.48;23.67;;;;;;;;;;5054760;28;20480;-71
2021/07/24 05:05:53;;;;;;;32.63;26.02;;;;;;;;;;5056034;28;20601;-70
2021/07/24 05:08:22;;;;;;;28.75;23.52;;;;;;;;;;5054467;28;20031;-68
2021/07/24 05:10:48;;;;;;;30.27;22.10;;;;;;;;;;5035629;28;20013;-71
2021/07/24 05:13:14;;;;;;;28.30;22.27;;;;;;;;;;5034201;28;20029;-70
2021/07/24 05:15:41;;;;;;;27.20;22.40;;;;;;;;;;5035619;28;20025;-69
2021/07/24 05:18:08;;;;;;;24.95;21.20;;;;;;;;;;5035539;28;20029;-69
2021/07/24 05:20:34;;;;;;;28.08;21.58;;;;;;;;;;5035438;28;20017;-69
2021/07/24 05:23:00;;;;;;;27.80;21.77;;;;;;;;;;5035403;28;20033;-70
2021/07/24 05:25:27;;;;;;;27.42;22.85;;;;;;;;;;5035384;28;20032;-71
2021/07/24 05:27:53;;;;;;;31.10;22.95;;;;;;;;;;5033619;28;20172;-70
2021/07/24 05:30:19;;;;;;;27.27;22.17;;;;;;;;;;5031077;28;20041;-73
2021/07/24 05:32:45;;;;;;;25.58;21.35;;;;;;;;;;5034045;28;20067;-71
2021/07/24 05:35:11;;;;;;;26.70;20.83;;;;;;;;;;5035616;28;20026;-69
2021/07/24 05:37:38;;;;;;;28.80;21.05;;;;;;;;;;5035520;28;20022;-72
2021/07/24 05:40:04;;;;;;;28.63;20.65;;;;;;;;;;5035769;28;20026;-70
2021/07/24 05:42:31;;;;;;;32.47;22.23;;;;;;;;;;5034178;28;20461;-70
2021/07/24 05:44:57;;;;;;;24.73;21.13;;;;;;;;;;5035084;28;20069;-68
2021/07/24 05:47:23;;;;;;;27.65;20.55;;;;;;;;;;5034019;28;20385;-70
2021/07/24 05:49:53;;;;;;;23.92;18.73;;;;;;;;;;5033877;28;20522;-72
2021/07/24 05:52:19;;;;;;;18.75;15.98;;;;;;;;;;5035101;28;20112;-71
2021/07/24 05:54:45;;;;;;;21.95;16.33;;;;;;;;;;5035285;28;20033;-69
2021/07/24 05:57:11;;;;;;;18.70;14.43;;;;;;;;;;5035075;28;20079;-69
2021/07/24 05:59:37;;;;;;;17.95;15.43;;;;;;;;;;5034804;28;20438;-69
2021/07/24 06:02:05;;;;;;;20.20;15.40;;;;;;;;;;5033526;28;20071;-71
2021/07/24 06:04:32;;;;;;;18.55;14.38;;;;;;;;;;5035063;28;20029;-70
2021/07/24 06:06:58;;;;;;;18.25;14.23;;;;;;;;;;5035063;28;20018;-69
2021/07/24 06:09:24;;;;;;;25.25;13.50;;;;;;;;;;5034932;28;20021;-71
2021/07/24 06:11:51;;;;;;;21.27;12.45;;;;;;;;;;5034662;28;20096;-68
2021/07/24 06:14:17;;;;;;;21.55;13.40;;;;;;;;;;5035051;28;20044;-70
2021/07/24 06:16:43;;;;;;;19.00;12.40;;;;;;;;;;5033501;28;20029;-69
2021/07/24 06:19:09;;;;;;;24.73;12.63;;;;;;;;;;5033506;28;20115;-70
2021/07/24 06:21:35;;;;;;;25.70;12.48;;;;;;;;;;5034733;28;20029;-70
2021/07/24 06:24:02;;;;;;;17.00;12.23;;;;;;;;;;5033327;28;20488;-69
2021/07/24 06:26:28;;;;;;;22.58;13.00;;;;;;;;;;5034954;28;20112;-68
2021/07/24 06:28:54;;;;;;;20.30;12.98;;;;;;;;;;5032524;28;20041;-69
2021/07/24 06:31:20;;;;;;;14.15;11.15;;;;;;;;;;5033259;28;20044;-70
2021/07/24 06:33:46;;;;;;;18.42;11.80;;;;;;;;;;5034535;28;20032;-69
2021/07/24 06:36:12;;;;;;;15.20;10.73;;;;;;;;;;5034501;28;20029;-69
2021/07/24 06:38:39;;;;;;;14.73;11.90;;;;;;;;;;5032486;28;20025;-71
2021/07/24 06:41:05;;;;;;;15.00;10.27;;;;;;;;;;5034256;28;20144;-71
2021/07/24 06:43:32;;;;;;;15.85;10.18;;;;;;;;;;5034225;28;20029;-70
2021/07/24 06:45:58;;;;;;;14.20;10.95;;;;;;;;;;5032760;28;20434;-68
2021/07/24 06:48:24;;;;;;;25.25;12.15;;;;;;;;;;5034155;28;20116;-70
2021/07/24 06:50:50;;;;;;;13.63;10.93;;;;;;;;;;5034056;28;20533;-71
2021/07/24 06:53:16;;;;;;;12.57;10.25;;;;;;;;;;5033929;28;20060;-68
2021/07/24 06:55:42;;;;;;;15.85;10.55;;;;;;;;;;5033959;28;20026;-69
2021/07/24 06:58:09;;;;;;;14.27;10.05;;;;;;;;;;5033930;28;20100;-70
2021/07/24 07:00:35;;;;;;;22.10;10.80;;;;;;;;;;5033975;28;20029;-70
2021/07/24 07:03:02;;;;;;;16.15;10.05;;;;;;;;;;5033875;28;20109;-71
2021/07/24 07:05:29;;;;;;;15.05;10.18;;;;;;;;;;5033864;28;20029;-71
2021/07/24 07:07:55;;;;;;;17.15;10.75;;;;;;;;;;5032506;28;20067;-71
2021/07/24 07:10:21;;;;;;;13.45;10.45;;;;;;;;;;5033828;28;20077;-71
2021/07/24 07:12:48;;;;;;;12.90;9.32;;;;;;;;;;5032398;28;20433;-71
2021/07/24 07:15:15;;;;;;;16.23;9.90;;;;;;;;;;5032172;28;20033;-71
2021/07/24 07:17:41;;;;;;;15.15;10.32;;;;;;;;;;5032227;28;20429;-71
2021/07/24 07:20:08;;;;;;;11.88;10.40;;;;;;;;;;5031392;28;20052;-72
2021/07/24 07:22:34;;;;;;;15.18;9.98;;;;;;;;;;5031851;28;20057;-71
2021/07/24 07:25:00;;;;;;;15.55;10.55;;;;;;;;;;5033694;28;20033;-71
2021/07/24 07:27:26;;;;;;;17.08;10.25;;;;;;;;;;5033188;28;20481;-71
2021/07/24 07:29:53;;;;;;;18.90;10.27;;;;;;;;;;5033513;28;20160;-71
2021/07/24 07:32:19;;;;;;;17.85;10.70;;;;;;;;;;5033145;28;20143;-71
2021/07/24 07:34:45;;;;;;;10.82;9.57;;;;;;;;;;5033135;28;20038;-70
2021/07/24 07:37:11;;;;;;;14.85;10.35;;;;;;;;;;5033229;28;20053;-71
2021/07/24 07:39:37;;;;;;;15.18;10.48;;;;;;;;;;5032889;28;20032;-72
2021/07/24 07:42:04;;;;;;;19.70;10.25;;;;;;;;;;5031560;28;20535;-71
2021/07/24 07:44:30;;;;;;;13.07;10.43;;;;;;;;;;5032514;28;20029;-71
2021/07/24 07:46:56;;;;;;;10.88;9.68;;;;;;;;;;5030911;28;20128;-72
2021/07/24 07:49:23;;;;;;;11.90;10.05;;;;;;;;;;5032219;28;20025;-71
2021/07/24 07:51:49;;;;;;;14.85;9.38;;;;;;;;;;5030077;28;20052;-71
2021/07/24 07:54:15;;;;;;;14.13;9.52;;;;;;;;;;5030400;28;20561;-71
2021/07/24 07:56:42;;;;;;;13.00;9.70;;;;;;;;;;5031727;28;20021;-71
2021/07/24 07:59:08;;;;;;;18.73;9.40;;;;;;;;;;5032998;28;20071;-71
2021/07/24 08:01:35;;;;;;;11.23;9.48;;;;;;;;;;5031388;28;20108;-71
2021/07/24 08:04:01;;;;;;;13.43;8.93;;;;;;;;;;5032971;28;20025;-71
2021/07/24 08:06:28;;;;;;;15.25;9.32;;;;;;;;;;5032934;28;20021;-71
2021/07/24 08:08:54;;;;;;;15.40;9.20;;;;;;;;;;5032930;28;20021;-71
2021/07/24 08:11:20;;;;;;;11.15;8.85;;;;;;;;;;5032154;28;20101;-71
2021/07/24 08:13:47;;;;;;;14.38;9.07;;;;;;;;;;5031535;28;20105;-71
2021/07/24 08:16:14;;;;;;;12.88;8.73;;;;;;;;;;5032981;28;20036;-71
2021/07/24 08:18:41;;;;;;;13.90;9.95;;;;;;;;;;5032930;28;20351;-71
2021/07/24 08:21:07;;;;;;;13.70;8.43;;;;;;;;;;5032605;28;20429;-71
2021/07/24 08:23:33;;;;;;;12.18;8.43;;;;;;;;;;5031502;28;20033;-71
2021/07/24 08:26:00;;;;;;;19.17;9.25;;;;;;;;;;5032765;28;20061;-72
2021/07/24 08:28:29;;;;;;;9.15;7.50;;;;;;;;;;5032634;28;20132;-71
2021/07/24 08:30:56;;;;;;;11.57;8.00;;;;;;;;;;5032524;28;20083;-72
2021/07/24 08:33:22;;;;;;;12.93;7.53;;;;;;;;;;5032750;28;20021;-72
2021/07/24 08:35:48;;;;;;;8.93;8.02;;;;;;;;;;5031446;28;20026;-72
2021/07/24 08:38:15;;;;;;;13.13;9.00;;;;;;;;;;5032741;28;20129;-72
2021/07/24 08:40:45;;;;;;;15.93;8.82;;;;;;;;;;5031371;28;20120;-71
2021/07/24 08:43:11;;;;;;;11.13;7.75;;;;;;;;;;5032767;28;20026;-71
2021/07/24 08:45:38;;;;;;;8.70;7.80;;;;;;;;;;5031492;28;20581;-72
2021/07/24 08:48:05;;;;;;;9.15;8.23;;;;;;;;;;5032957;28;20108;-72
2021/07/24 08:50:33;;;;;;;12.95;8.43;;;;;;;;;;5031317;28;20048;-72
2021/07/24 08:53:03;;;;;;;12.60;7.68;;;;;;;;;;5032497;28;20022;-72
2021/07/24 08:55:30;;;;;;;13.32;7.75;;;;;;;;;;5031300;28;20036;-71
2021/07/24 08:57:58;;;;;;;11.10;8.75;;;;;;;;;;5032557;28;20065;-71
2021/07/24 09:00:27;;;;;;;9.00;7.93;;;;;;;;;;5032538;28;20021;-71
2021/07/24 09:02:53;;;;;;;10.55;7.65;;;;;;;;;;5034727;28;20061;-72
2021/07/24 09:05:20;;;;;;;12.13;8.68;;;;;;;;;;5036075;28;20083;-72
2021/07/24 09:07:47;;;;;;;11.40;8.00;;;;;;;;;;5035711;28;20044;-71
2021/07/24 09:10:13;;;;;;;10.70;7.97;;;;;;;;;;5036100;28;20071;-72
2021/07/24 09:12:40;;;;;;;11.18;6.97;;;;;;;;;;5036043;28;20093;-72
2021/07/24 09:15:07;;;;;;;10.30;7.68;;;;;;;;;;5034697;28;20239;-71
2021/07/24 09:17:33;;;;;;;15.70;8.65;;;;;;;;;;5035842;28;20493;-72
2021/07/24 09:20:00;;;;;;;8.50;7.60;;;;;;;;;;5034558;28;20464;-71
2021/07/24 09:22:31;;;;;;;11.48;7.65;;;;;;;;;;5035775;28;20470;-71
2021/07/24 09:25:13;;;;;;;9.40;6.90;;;;;;;;;;5034190;28;20044;-71
2021/07/24 09:27:41;;;;;;;10.55;7.30;;;;;;;;;;5035158;28;20060;-71
2021/07/24 09:30:07;;;;;;;9.50;6.82;;;;;;;;;;5035268;28;20371;-71
2021/07/24 09:32:34;;;;;;;11.13;7.22;;;;;;;;;;5035498;28;20029;-70
2021/07/24 09:35:00;;;;;;;14.63;6.90;;;;;;;;;;5035590;28;20025;-70
2021/07/24 09:37:30;;;;;;;18.30;6.65;;;;;;;;;;5034335;28;20394;-70
2021/07/24 09:40:15;;;;;;;7.63;6.32;;;;;;;;;;5035539;28;20083;-70
2021/07/24 09:42:41;;;;;;;9.15;6.20;;;;;;;;;;5035280;28;20038;-71
2021/07/24 09:45:08;;;;;;;12.85;6.47;;;;;;;;;;5035355;28;20029;-71
2021/07/24 09:47:34;;;;;;;8.55;5.97;;;;;;;;;;5034126;28;20030;-73
2021/07/24 09:50:21;;;;;;;9.38;6.32;;;;;;;;;;5034061;28;20064;-74
2021/07/24 09:52:50;;;;;;;7.40;6.65;;;;;;;;;;5035056;28;20026;-71
2021/07/24 09:55:21;;;;;;;6.78;6.15;;;;;;;;;;5035228;28;20048;-71
2021/07/24 09:57:48;;;;;;;7.90;6.63;;;;;;;;;;5035233;28;20060;-71
2021/07/24 10:00:20;;;;;;;9.27;6.75;;;;;;;;;;5035099;28;20018;-71
2021/07/24 10:02:47;;;;;;;10.98;6.38;;;;;;;;;;5035114;28;20079;-73
2021/07/24 10:05:14;;;;;;;7.90;6.50;;;;;;;;;;5034953;28;20034;-71
2021/07/24 10:07:42;;;;;;;7.13;5.60;;;;;;;;;;5035411;28;20029;-71
2021/07/24 10:10:08;;;;;;;10.25;6.28;;;;;;;;;;5035084;28;20482;-72
2021/07/24 10:12:35;;;;;;;7.57;5.97;;;;;;;;;;5033987;28;20025;-72
2021/07/24 10:15:03;;;;;;;6.65;6.00;;;;;;;;;;5033558;28;20029;-72
2021/07/24 10:17:30;;;;;;;7.60;6.60;;;;;;;;;;5033533;28;20465;-72
2021/07/24 10:19:56;;;;;;;7.72;6.47;;;;;;;;;;5034773;28;20171;-71
2021/07/24 10:22:23;;;;;;;6.85;5.85;;;;;;;;;;5034490;28;20105;-71
2021/07/24 10:24:49;;;;;;;7.97;6.10;;;;;;;;;;5034589;28;20036;-71
2021/07/24 10:27:22;;;;;;;10.00;6.63;;;;;;;;;;5033426;28;20500;-70
2021/07/24 10:29:57;;;;;;;10.57;6.68;;;;;;;;;;5034166;28;20059;-70
2021/07/24 10:32:29;;;;;;;9.65;6.53;;;;;;;;;;5034648;28;20021;-68
2021/07/24 10:34:55;;;;;;;9.20;6.35;;;32.00;59.10;;;;;;5034580;28;20235;-68
2021/07/24 10:37:42;;;;;;;8.60;6.30;;;32.30;60.90;;;;;;5033109;28;20029;-69
2021/07/24 10:40:20;;;;;;;7.07;6.20;;;32.20;56.10;;;;;;5033685;28;20112;-69
2021/07/24 10:42:50;;;;;;;8.82;5.78;;;33.10;56.40;;;;;;5034305;28;20025;-70
2021/07/24 10:45:36;;;;;;;9.07;5.95;;;33.40;57.80;;;;;;5034053;28;20026;-69
2021/07/24 10:48:14;;;;;;;8.52;6.22;;;33.90;56.70;;;;;;5032592;28;20351;-69
2021/07/24 10:51:03;;;;;;;7.20;6.18;;;34.30;55.50;;;;;;5032538;28;20068;-69
2021/07/24 10:54:00;;;;;;;9.05;5.95;;;34.70;54.30;;;;;;5033765;28;20423;-69
2021/07/24 10:56:41;;;;;;;8.23;5.50;;;35.20;53.00;;;;;;5034152;28;20038;-70
2021/07/24 10:59:13;;;;;;;12.95;5.60;;;35.50;53.20;;;;;;5034052;28;20559;-70
2021/07/24 11:02:01;;;;;;;9.65;5.80;;;36.00;52.00;;;;;;5031700;28;20051;-70
2021/07/24 11:04:36;;;;;;;9.25;5.55;;;36.60;48.40;;;;;;5032415;28;20464;-70
2021/07/24 11:07:23;;;;;;;8.55;6.10;;;37.10;48.30;;;;;;5032551;28;20028;-69
2021/07/24 11:09:52;;;;;;;8.73;5.43;;;37.10;51.50;;;;;;5020791;28;20085;-72
2021/07/24 11:12:32;;;;;;;8.40;5.40;;;37.10;49.90;;;;;;5033494;28;20030;-71
2021/07/24 11:14:58;;;;;;;8.20;5.43;;;;;;;;;;5032487;28;20026;-72
2021/07/24 11:17:25;;;;;;;7.90;6.13;;;;;;;;;;5033827;28;20053;-71
2021/07/24 11:19:51;;;;;;;9.00;6.30;;;;;;;;;;5032424;28;20021;-70
2021/07/24 11:22:20;;;;;;;7.00;5.50;;;;;;;;;;5032347;28;20026;-71
2021/07/24 11:24:52;;;;;;;8.20;6.07;;;34.00;52.90;;;;;;5032024;28;20038;-72
2021/07/24 11:27:27;;;;;;;10.27;6.35;;;35.10;53.10;;;;;;5033585;28;20037;-71
2021/07/24 11:29:54;;;;;;;7.07;5.97;;;35.90;53.00;;;;;;5033064;28;20049;-70
2021/07/24 11:32:27;;;;;;;7.80;6.53;;;36.70;50.70;;;;;;5032221;28;20017;-72
2021/07/24 11:35:05;;;;;;;10.90;6.80;;;37.40;50.10;;;;;;5033140;28;20037;-72
2021/07/24 11:37:36;;;;;;;6.82;6.07;;;38.30;48.90;;;;;;5032016;28;20466;-71
2021/07/24 11:40:04;;;;;;;8.43;6.38;;;37.90;47.60;;;;;;5032036;28;20531;-71
2021/07/24 11:42:29;;;;;;;9.13;6.78;;;38.20;48.00;;;;;;5031653;28;20068;-71
2021/07/24 11:44:55;;;;;;;8.45;7.32;;;39.00;47.30;;;;;;5033379;28;20057;-73
2021/07/24 11:47:21;;;;;;;11.30;7.55;;;39.10;46.80;;;;;;5033256;28;20087;-72
2021/07/24 11:49:47;;;;;;;6.97;6.03;;;39.10;45.30;;;;;;5032833;28;20108;-71
2021/07/24 11:52:13;;;;;;;6.72;5.75;;;39.40;45.50;;;;;;5033227;28;20374;-72
2021/07/24 11:54:39;;;;;;;7.93;5.07;;;39.40;46.10;;;;;;5033030;28;20033;-71
2021/07/24 11:57:05;;;;;;;6.70;5.18;;;39.80;44.10;;;;;;5032912;28;20029;-69
2021/07/24 11:59:40;;;;;;;6.00;5.40;;;40.00;50.10;;;;;;5033039;28;20037;-73
2021/07/24 12:02:19;;;;;;;6.57;4.85;;;40.60;44.40;;;;;;5032681;28;20389;-71
2021/07/24 12:04:48;;;;;;;8.65;5.70;;;41.30;42.70;;;;;;5032874;28;20110;-72
2021/07/24 12:07:16;;;;;;;5.47;4.97;;;41.40;43.50;;;;;;5031680;28;20025;-72
2021/07/24 12:09:42;;;;;;;7.18;5.43;;;41.30;41.70;;;;;;5033310;28;20029;-72
2021/07/24 12:12:09;;;;;;;6.63;5.03;;;40.90;43.20;;;;;;5033009;28;20025;-71
2021/07/24 12:14:34;;;;;;;6.88;4.80;;;41.20;41.50;;;;;;5031674;28;20418;-73
2021/07/24 12:17:11;;;;;;;6.55;5.10;;;41.60;42.80;;;;;;5031622;28;20110;-70
2021/07/24 12:19:42;;;;;;;8.35;5.05;;;41.70;42.80;;;;;;5031692;28;20160;-70
2021/07/24 12:22:19;;;;;;;7.15;5.22;;;42.00;41.50;;;;;;5032911;28;20025;-69
2021/07/24 12:24:47;;;;;;;5.72;5.20;;;41.80;40.60;;;;;;5031601;28;20041;-73
2021/07/24 12:27:18;;;;;;;5.70;5.07;;;42.40;39.80;;;;;;5031428;28;20026;-71
2021/07/24 12:29:50;;;;;;;8.50;5.15;;;42.90;40.50;;;;;;5032371;28;20057;-73
2021/07/24 12:32:16;;;;;;;7.20;4.85;;;43.40;38.90;;;;;;5032787;28;20108;-72
2021/07/24 12:34:42;;;;;;;5.43;4.93;;;43.60;40.70;;;;;;5032715;28;20047;-73
2021/07/24 12:37:08;;;;;;;6.55;5.22;;;;;;;;;;5035335;28;20021;-74
2021/07/24 12:39:36;;;;;;;5.97;4.90;;;43.60;78.10;;;;;;5035428;28;20386;-72
2021/07/24 12:42:09;;;;;;;8.88;4.93;;;44.60;70.20;;;;;;5035344;28;20044;-72
2021/07/24 12:44:57;;;;;;;6.03;5.43;;;43.80;38.50;;;;;;5036234;28;20120;-73
2021/07/24 12:47:24;;;;;;;6.45;5.28;;;43.80;57.30;;;;;;5035196;28;20359;-72
2021/07/24 12:49:51;;;;;;;5.78;5.22;;;44.70;38.10;;;;;;5035763;28;20036;-72
2021/07/24 12:52:27;;;;;;;7.78;4.63;;;;;;;;;;5036109;28;20473;-72
2021/07/24 12:55:14;;;;;;;5.90;5.32;;;;;;;;;;5036516;28;20025;-72
2021/07/24 12:57:40;;;;;;;7.97;5.15;;;;;;;;;;5036325;28;20462;-69
2021/07/24 13:00:06;;;;;;;11.25;5.10;;;;;;;;;;5036254;28;20035;-70
2021/07/24 13:02:35;;;;;;;7.13;4.88;;;;;;;;;;5036489;28;20025;-70
2021/07/24 13:05:01;;;;;;;5.80;4.80;;;;;;;;;;5036178;28;20029;-69
2021/07/24 13:07:27;;;;;;;10.35;5.10;;;;;;;;;;5036382;28;20021;-69
2021/07/24 13:09:54;;;;;;;5.50;4.82;;;;;;;;;;5035876;28;20026;-70
2021/07/24 13:12:21;;;;;;;6.35;4.93;;;;;;;;;;5034402;28;20040;-69
2021/07/24 13:14:48;;;;;;;7.95;5.45;;;;;;;;;;5034403;28;20026;-69
2021/07/24 13:17:14;;;;;;;9.00;5.55;;;;;;;;;;5034281;28;20017;-71
2021/07/24 13:19:40;;;;;;;7.70;4.70;;;46.40;36.20;;;;;;5035625;28;20053;-71
2021/07/24 13:22:06;;;;;;;6.70;5.20;;;46.50;36.50;;;;;;5036036;28;20056;-72
2021/07/24 13:24:33;;;;;;;6.03;5.43;;;46.90;36.60;;;;;;5036052;28;20041;-71
2021/07/24 13:29:44;;;;;;;7.18;5.30;;;46.40;36.60;;;;;;5035797;28;20060;-70
2021/07/24 13:32:12;;;;;;;9.52;5.10;;;;;;;;;;5035707;28;20030;-70
2021/07/24 13:34:38;;;;;;;5.30;4.80;;;45.70;36.00;;;;;;5035617;28;20466;-70
2021/07/24 13:37:04;;;;;;;6.63;4.80;;;46.30;35.60;;;;;;5035608;28;20025;-70
2021/07/24 13:39:30;;;;;;;5.30;4.80;;;46.60;36.40;;;;;;5035369;28;20033;-68
2021/07/24 13:41:57;;;;;;;7.97;4.85;;;46.90;36.80;;;;;;5035514;28;20033;-68
2021/07/24 13:44:23;;;;;;;6.78;4.65;;;46.90;37.00;;;;;;5032103;28;20022;-68
2021/07/24 13:46:50;;;;;;;5.82;4.40;;;47.30;36.90;;;;;;5030550;28;20072;-68
2021/07/24 13:49:15;;;;;;;5.28;4.55;;;47.60;36.40;;;;;;5034522;28;20107;-68
2021/07/24 13:51:43;;;;;;;7.75;4.80;;;47.70;37.30;;;;;;5035263;28;20030;-67
2021/07/24 13:54:09;;;;;;;6.35;4.80;;;48.10;36.40;;;;;;5035392;28;20109;-68
2021/07/24 13:56:36;;;;;;;7.05;4.75;;;48.00;36.80;;;;;;5035278;28;20076;-68
2021/07/24 13:59:02;;;;;;;30.05;18.17;;;48.20;35.90;;;;;;5034021;28;20394;-67
2021/07/24 14:01:27;;;;;;;13.85;7.95;;;48.10;35.70;;;;;;5035309;28;20025;-68
2021/07/24 14:03:54;;;;;;;7.75;4.65;;;48.60;36.10;;;;;;5035328;28;20026;-69
2021/07/24 14:06:20;;;;;;;6.25;4.80;;;48.80;35.50;;;;;;5034811;28;20060;-67
2021/07/24 14:08:46;;;;;;;5.50;4.80;;;49.00;35.50;;;;;;5035192;28;20458;-68
2021/07/24 14:11:14;;;;;;;9.85;4.72;;;48.90;36.20;;;;;;5035039;28;20037;-68